sensor_id;sensor_type;location;lat;lon;timestamp;pressure;altitude;pressure_sealevel;temperature;humidity
59650;BME280;46162;57.568;25.814;2023-01-09T00:02:01;100880.34;;;-6.74;100.00
59650;BME280;46162;57.568;25.814;2023-01-09T00:04:31;100867.13;;;-6.71;100.00
59650;BME280;46162;57.568;25.814;2023-01-09T00:07:00;100869.63;;;-6.66;100.00
59650;BME280;46162;57.568;25.814;2023-01-09T00:09:28;100865.13;;;-6.61;100.00
59650;BME280;46162;57.568;25.814;2023-01-09T00:11:57;100867.84;;;-6.64;100.00
59650;BME280;46162;57.568;25.814;2023-01-09T00:14:26;100876.66;;;-6.67;100.00
59650;BME280;46162;57.568;25.814;2023-01-09T00:16:54;100866.06;;;-6.64;100.00
59650;BME280;46162;57.568;25.814;2023-01-09T00:19:23;100857.16;;;-6.58;100.00
59650;BME280;46162;57.568;25.814;2023-01-09T00:21:53;100850.13;;;-6.58;100.00
59650;BME280;46162;57.568;25.814;2023-01-09T00:24:22;100851.91;;;-6.58;100.00
59650;BME280;46162;57.568;25.814;2023-01-09T00:26:50;100840.63;;;-6.62;100.00
59650;BME280;46162;57.568;25.814;2023-01-09T00:29:19;100844.13;;;-6.61;100.00
59650;BME280;46162;57.568;25.814;2023-01-09T00:31:48;100837.94;;;-6.60;100.00
59650;BME280;46162;57.568;25.814;2023-01-09T00:34:16;100841.47;;;-6.60;100.00
59650;BME280;46162;57.568;25.814;2023-01-09T00:36:45;100831.81;;;-6.59;100.00
59650;BME280;46162;57.568;25.814;2023-01-09T00:39:15;100836.16;;;-6.58;100.00
59650;BME280;46162;57.568;25.814;2023-01-09T00:41:46;100836.22;;;-6.60;100.00
59650;BME280;46162;57.568;25.814;2023-01-09T00:44:17;100845.28;;;-6.73;100.00
59650;BME280;46162;57.568;25.814;2023-01-09T00:46:49;100853.13;;;-6.72;100.00
59650;BME280;46162;57.568;25.814;2023-01-09T00:49:19;100843.34;;;-6.65;100.00
59650;BME280;46162;57.568;25.814;2023-01-09T00:51:49;100829.34;;;-6.65;100.00
59650;BME280;46162;57.568;25.814;2023-01-09T00:54:19;100838.94;;;-6.64;100.00
59650;BME280;46162;57.568;25.814;2023-01-09T00:56:49;100816.88;;;-6.57;100.00
59650;BME280;46162;57.568;25.814;2023-01-09T00:59:17;100818.69;;;-6.59;100.00
59650;BME280;46162;57.568;25.814;2023-01-09T01:01:46;100816.16;;;-6.62;100.00
59650;BME280;46162;57.568;25.814;2023-01-09T01:04:15;100809.00;;;-6.57;100.00
59650;BME280;46162;57.568;25.814;2023-01-09T01:07:01;100819.50;;;-6.57;100.00
59650;BME280;46162;57.568;25.814;2023-01-09T01:09:49;100809.75;;;-6.52;100.00
59650;BME280;46162;57.568;25.814;2023-01-09T01:12:17;100802.84;;;-6.56;100.00
59650;BME280;46162;57.568;25.814;2023-01-09T01:14:46;100804.63;;;-6.58;100.00
59650;BME280;46162;57.568;25.814;2023-01-09T01:17:15;100788.22;;;-6.66;100.00
59650;BME280;46162;57.568;25.814;2023-01-09T01:19:43;100787.09;;;-6.56;100.00
59650;BME280;46162;57.568;25.814;2023-01-09T01:22:12;100796.84;;;-6.61;100.00
59650;BME280;46162;57.568;25.814;2023-01-09T01:24:40;100799.50;;;-6.63;100.00
59650;BME280;46162;57.568;25.814;2023-01-09T01:27:10;100799.31;;;-6.55;100.00
59650;BME280;46162;57.568;25.814;2023-01-09T01:29:39;100801.97;;;-6.57;100.00
59650;BME280;46162;57.568;25.814;2023-01-09T01:32:08;100793.06;;;-6.51;100.00
59650;BME280;46162;57.568;25.814;2023-01-09T01:34:37;100789.88;;;-6.62;100.00
59650;BME280;46162;57.568;25.814;2023-01-09T01:37:06;100782.69;;;-6.56;100.00
59650;BME280;46162;57.568;25.814;2023-01-09T01:39:35;100785.59;;;-6.66;100.00
59650;BME280;46162;57.568;25.814;2023-01-09T01:42:04;100779.28;;;-6.59;100.00
59650;BME280;46162;57.568;25.814;2023-01-09T01:45:12;100776.91;;;-6.68;100.00
59650;BME280;46162;57.568;25.814;2023-01-09T01:47:47;100781.38;;;-6.72;100.00
59650;BME280;46162;57.568;25.814;2023-01-09T01:50:20;100770.69;;;-6.64;100.00
59650;BME280;46162;57.568;25.814;2023-01-09T01:52:54;100779.56;;;-6.70;100.00
59650;BME280;46162;57.568;25.814;2023-01-09T01:55:24;100787.25;;;-6.62;100.00
59650;BME280;46162;57.568;25.814;2023-01-09T01:57:57;100779.44;;;-6.65;100.00
59650;BME280;46162;57.568;25.814;2023-01-09T02:00:30;100778.69;;;-6.71;100.00
59650;BME280;46162;57.568;25.814;2023-01-09T02:03:00;100767.22;;;-6.66;100.00
59650;BME280;46162;57.568;25.814;2023-01-09T02:05:29;100765.22;;;-6.57;100.00
59650;BME280;46162;57.568;25.814;2023-01-09T02:07:58;100764.59;;;-6.66;100.00
59650;BME280;46162;57.568;25.814;2023-01-09T02:10:27;100762.75;;;-6.63;100.00
59650;BME280;46162;57.568;25.814;2023-01-09T02:12:56;100767.22;;;-6.66;100.00
59650;BME280;46162;57.568;25.814;2023-01-09T02:15:27;100760.41;;;-6.74;100.00
59650;BME280;46162;57.568;25.814;2023-01-09T02:20:57;100748.84;;;-6.66;100.00
59650;BME280;46162;57.568;25.814;2023-01-09T02:24:14;100745.16;;;-6.59;100.00
59650;BME280;46162;57.568;25.814;2023-01-09T02:27:22;100730.59;;;-6.71;100.00
59650;BME280;46162;57.568;25.814;2023-01-09T02:30:18;100741.19;;;-6.74;100.00
59650;BME280;46162;57.568;25.814;2023-01-09T02:32:58;100735.94;;;-6.74;100.00
59650;BME280;46162;57.568;25.814;2023-01-09T02:35:41;100726.28;;;-6.74;100.00
59650;BME280;46162;57.568;25.814;2023-01-09T02:38:22;100720.69;;;-6.61;100.00
59650;BME280;46162;57.568;25.814;2023-01-09T02:40:59;100712.31;;;-6.76;100.00
59650;BME280;46162;57.568;25.814;2023-01-09T02:43:31;100703.28;;;-6.65;100.00
59650;BME280;46162;57.568;25.814;2023-01-09T02:46:01;100691.06;;;-6.66;100.00
59650;BME280;46162;57.568;25.814;2023-01-09T02:48:30;100685.09;;;-6.72;100.00
59650;BME280;46162;57.568;25.814;2023-01-09T02:51:08;100682.47;;;-6.72;100.00
59650;BME280;46162;57.568;25.814;2023-01-09T02:53:54;100680.88;;;-6.77;100.00
59650;BME280;46162;57.568;25.814;2023-01-09T02:56:35;100671.25;;;-6.78;100.00
59650;BME280;46162;57.568;25.814;2023-01-09T02:59:17;100664.25;;;-6.78;100.00
59650;BME280;46162;57.568;25.814;2023-01-09T03:02:12;100658.94;;;-6.75;100.00
59650;BME280;46162;57.568;25.814;2023-01-09T03:04:55;100662.16;;;-6.65;100.00
59650;BME280;46162;57.568;25.814;2023-01-09T03:07:32;100660.72;;;-6.77;100.00
59650;BME280;46162;57.568;25.814;2023-01-09T03:10:07;100654.66;;;-6.79;100.00
59650;BME280;46162;57.568;25.814;2023-01-09T03:12:39;100655.38;;;-6.74;100.00
59650;BME280;46162;57.568;25.814;2023-01-09T03:15:09;100657.91;;;-6.71;100.00
59650;BME280;46162;57.568;25.814;2023-01-09T03:17:43;100640.38;;;-6.68;100.00
59650;BME280;46162;57.568;25.814;2023-01-09T03:20:15;100642.97;;;-6.67;100.00
59650;BME280;46162;57.568;25.814;2023-01-09T03:22:52;100644.97;;;-6.77;100.00
59650;BME280;46162;57.568;25.814;2023-01-09T03:25:21;100637.78;;;-6.70;100.00
59650;BME280;46162;57.568;25.814;2023-01-09T03:27:55;100635.94;;;-6.66;100.00
59650;BME280;46162;57.568;25.814;2023-01-09T03:30:26;100630.94;;;-6.76;100.00
59650;BME280;46162;57.568;25.814;2023-01-09T03:32:56;100638.72;;;-6.73;100.00
59650;BME280;46162;57.568;25.814;2023-01-09T03:35:25;100628.16;;;-6.69;100.00
59650;BME280;46162;57.568;25.814;2023-01-09T03:37:54;100632.50;;;-6.68;100.00
59650;BME280;46162;57.568;25.814;2023-01-09T03:40:23;100648.25;;;-6.68;100.00
59650;BME280;46162;57.568;25.814;2023-01-09T03:42:51;100651.66;;;-6.65;100.00
59650;BME280;46162;57.568;25.814;2023-01-09T03:45:20;100664.72;;;-6.63;100.00
59650;BME280;46162;57.568;25.814;2023-01-09T03:47:48;100664.03;;;-6.70;100.00
59650;BME280;46162;57.568;25.814;2023-01-09T03:50:20;100666.53;;;-6.65;100.00
59650;BME280;46162;57.568;25.814;2023-01-09T03:52:49;100666.63;;;-6.68;100.00
59650;BME280;46162;57.568;25.814;2023-01-09T03:55:18;100672.81;;;-6.71;100.00
59650;BME280;46162;57.568;25.814;2023-01-09T03:57:47;100671.75;;;-6.64;100.00
59650;BME280;46162;57.568;25.814;2023-01-09T04:00:16;100668.19;;;-6.63;100.00
59650;BME280;46162;57.568;25.814;2023-01-09T04:02:46;100649.16;;;-6.69;100.00
59650;BME280;46162;57.568;25.814;2023-01-09T04:05:15;100657.44;;;-6.54;100.00
59650;BME280;46162;57.568;25.814;2023-01-09T04:07:45;100645.34;;;-6.59;100.00
59650;BME280;46162;57.568;25.814;2023-01-09T04:10:15;100637.63;;;-6.65;100.00
59650;BME280;46162;57.568;25.814;2023-01-09T04:12:44;100637.28;;;-6.53;100.00
59650;BME280;46162;57.568;25.814;2023-01-09T04:15:13;100635.81;;;-6.62;100.00
59650;BME280;46162;57.568;25.814;2023-01-09T04:17:42;100638.38;;;-6.60;100.00
59650;BME280;46162;57.568;25.814;2023-01-09T04:20:11;100623.50;;;-6.60;100.00
59650;BME280;46162;57.568;25.814;2023-01-09T04:22:40;100619.25;;;-6.65;100.00
59650;BME280;46162;57.568;25.814;2023-01-09T04:25:10;100615.75;;;-6.64;100.00
59650;BME280;46162;57.568;25.814;2023-01-09T04:27:39;100613.94;;;-6.62;100.00
59650;BME280;46162;57.568;25.814;2023-01-09T04:30:09;100622.91;;;-6.69;100.00
59650;BME280;46162;57.568;25.814;2023-01-09T04:32:38;100627.38;;;-6.73;100.00
59650;BME280;46162;57.568;25.814;2023-01-09T04:35:07;100635.00;;;-6.65;100.00
59650;BME280;46162;57.568;25.814;2023-01-09T04:37:36;100644.75;;;-6.69;100.00
59650;BME280;46162;57.568;25.814;2023-01-09T04:40:08;100649.56;;;-6.54;100.00
59650;BME280;46162;57.568;25.814;2023-01-09T04:42:40;100642.47;;;-6.50;100.00
59650;BME280;46162;57.568;25.814;2023-01-09T04:45:10;100645.25;;;-6.56;100.00
59650;BME280;46162;57.568;25.814;2023-01-09T04:47:41;100641.22;;;-6.68;100.00
59650;BME280;46162;57.568;25.814;2023-01-09T04:50:11;100645.53;;;-6.65;100.00
59650;BME280;46162;57.568;25.814;2023-01-09T04:52:40;100641.28;;;-6.69;100.00
59650;BME280;46162;57.568;25.814;2023-01-09T04:55:09;100642.75;;;-6.61;100.00
59650;BME280;46162;57.568;25.814;2023-01-09T04:57:39;100649.69;;;-6.58;100.00
59650;BME280;46162;57.568;25.814;2023-01-09T05:00:09;100651.56;;;-6.62;100.00
59650;BME280;46162;57.568;25.814;2023-01-09T05:02:38;100641.16;;;-6.65;100.00
59650;BME280;46162;57.568;25.814;2023-01-09T05:05:08;100633.13;;;-6.60;100.00
59650;BME280;46162;57.568;25.814;2023-01-09T05:07:38;100636.50;;;-6.55;100.00
59650;BME280;46162;57.568;25.814;2023-01-09T05:10:08;100631.31;;;-6.58;100.00
59650;BME280;46162;57.568;25.814;2023-01-09T05:12:38;100641.69;;;-6.54;100.00
59650;BME280;46162;57.568;25.814;2023-01-09T05:15:08;100629.47;;;-6.55;100.00
59650;BME280;46162;57.568;25.814;2023-01-09T05:17:37;100634.03;;;-6.61;100.00
59650;BME280;46162;57.568;25.814;2023-01-09T05:20:06;100628.75;;;-6.60;100.00
59650;BME280;46162;57.568;25.814;2023-01-09T05:22:35;100619.00;;;-6.56;100.00
59650;BME280;46162;57.568;25.814;2023-01-09T05:25:05;100619.84;;;-6.56;100.00
59650;BME280;46162;57.568;25.814;2023-01-09T05:27:34;100621.66;;;-6.58;100.00
59650;BME280;46162;57.568;25.814;2023-01-09T05:30:06;100631.88;;;-6.47;100.00
59650;BME280;46162;57.568;25.814;2023-01-09T05:32:35;100631.81;;;-6.45;100.00
59650;BME280;46162;57.568;25.814;2023-01-09T05:35:04;100632.13;;;-6.56;100.00
59650;BME280;46162;57.568;25.814;2023-01-09T05:37:33;100646.31;;;-6.62;100.00
59650;BME280;46162;57.568;25.814;2023-01-09T05:40:02;100652.88;;;-6.47;100.00
59650;BME280;46162;57.568;25.814;2023-01-09T05:42:32;100660.06;;;-6.54;100.00
59650;BME280;46162;57.568;25.814;2023-01-09T05:45:01;100660.19;;;-6.58;100.00
59650;BME280;46162;57.568;25.814;2023-01-09T05:47:31;100652.81;;;-6.45;100.00
59650;BME280;46162;57.568;25.814;2023-01-09T05:50:00;100666.91;;;-6.48;100.00
59650;BME280;46162;57.568;25.814;2023-01-09T05:52:29;100662.56;;;-6.49;100.00
59650;BME280;46162;57.568;25.814;2023-01-09T05:54:57;100667.91;;;-6.52;100.00
59650;BME280;46162;57.568;25.814;2023-01-09T05:57:26;100665.91;;;-6.44;100.00
59650;BME280;46162;57.568;25.814;2023-01-09T05:59:57;100676.31;;;-6.41;100.00
59650;BME280;46162;57.568;25.814;2023-01-09T06:02:27;100668.56;;;-6.45;100.00
59650;BME280;46162;57.568;25.814;2023-01-09T06:04:57;100667.63;;;-6.43;100.00
59650;BME280;46162;57.568;25.814;2023-01-09T06:07:26;100675.44;;;-6.40;100.00
59650;BME280;46162;57.568;25.814;2023-01-09T06:09:55;100676.25;;;-6.38;100.00
59650;BME280;46162;57.568;25.814;2023-01-09T06:12:23;100675.47;;;-6.41;100.00
59650;BME280;46162;57.568;25.814;2023-01-09T06:14:52;100674.53;;;-6.39;100.00
59650;BME280;46162;57.568;25.814;2023-01-09T06:17:21;100669.47;;;-6.45;100.00
59650;BME280;46162;57.568;25.814;2023-01-09T06:19:50;100669.47;;;-6.45;100.00
59650;BME280;46162;57.568;25.814;2023-01-09T06:22:23;100666.88;;;-6.46;100.00
59650;BME280;46162;57.568;25.814;2023-01-09T06:24:52;100668.56;;;-6.45;100.00
59650;BME280;46162;57.568;25.814;2023-01-09T06:27:20;100663.97;;;-6.37;100.00
59650;BME280;46162;57.568;25.814;2023-01-09T06:29:52;100662.38;;;-6.43;100.00
59650;BME280;46162;57.568;25.814;2023-01-09T06:32:21;100665.16;;;-6.47;100.00
59650;BME280;46162;57.568;25.814;2023-01-09T06:34:49;100663.38;;;-6.47;100.00
59650;BME280;46162;57.568;25.814;2023-01-09T06:37:18;100657.19;;;-6.44;100.00
59650;BME280;46162;57.568;25.814;2023-01-09T06:39:50;100658.88;;;-6.43;100.00
59650;BME280;46162;57.568;25.814;2023-01-09T06:42:20;100664.81;;;-6.35;100.00
59650;BME280;46162;57.568;25.814;2023-01-09T06:44:49;100655.41;;;-6.44;100.00
59650;BME280;46162;57.568;25.814;2023-01-09T06:47:18;100651.59;;;-6.34;100.00
59650;BME280;46162;57.568;25.814;2023-01-09T06:49:47;100657.00;;;-6.38;100.00
59650;BME280;46162;57.568;25.814;2023-01-09T06:52:16;100653.41;;;-6.36;100.00
59650;BME280;46162;57.568;25.814;2023-01-09T06:54:45;100672.81;;;-6.40;100.00
59650;BME280;46162;57.568;25.814;2023-01-09T06:57:15;100669.47;;;-6.45;100.00
59650;BME280;46162;57.568;25.814;2023-01-09T06:59:44;100673.63;;;-6.38;100.00
59650;BME280;46162;57.568;25.814;2023-01-09T07:02:19;100677.34;;;-6.45;100.00
59650;BME280;46162;57.568;25.814;2023-01-09T07:04:48;100670.25;;;-6.43;100.00
59650;BME280;46162;57.568;25.814;2023-01-09T07:07:18;100675.56;;;-6.44;100.00
59650;BME280;46162;57.568;25.814;2023-01-09T07:09:49;100679.97;;;-6.45;100.00
59650;BME280;46162;57.568;25.814;2023-01-09T07:12:19;100673.63;;;-6.38;100.00
59650;BME280;46162;57.568;25.814;2023-01-09T07:14:50;100684.06;;;-6.36;100.00
59650;BME280;46162;57.568;25.814;2023-01-09T07:17:22;100672.34;;;-6.24;100.00
59650;BME280;46162;57.568;25.814;2023-01-09T07:19:51;100673.53;;;-6.35;100.00
59650;BME280;46162;57.568;25.814;2023-01-09T07:22:22;100664.69;;;-6.32;100.00
59650;BME280;46162;57.568;25.814;2023-01-09T07:24:51;100673.63;;;-6.38;100.00
59650;BME280;46162;57.568;25.814;2023-01-09T07:27:21;100669.22;;;-6.37;100.00
59650;BME280;46162;57.568;25.814;2023-01-09T07:29:50;100671.75;;;-6.34;100.00
59650;BME280;46162;57.568;25.814;2023-01-09T07:32:19;100672.72;;;-6.37;100.00
59650;BME280;46162;57.568;25.814;2023-01-09T07:34:48;100671.75;;;-6.34;100.00
59650;BME280;46162;57.568;25.814;2023-01-09T07:37:17;100656.59;;;-6.24;100.00
59650;BME280;46162;57.568;25.814;2023-01-09T07:39:46;100661.22;;;-6.33;100.00
59650;BME280;46162;57.568;25.814;2023-01-09T07:42:15;100653.97;;;-6.24;100.00
59650;BME280;46162;57.568;25.814;2023-01-09T07:44:46;100656.09;;;-6.37;100.00
59650;BME280;46162;57.568;25.814;2023-01-09T07:47:14;100644.41;;;-6.27;100.00
59650;BME280;46162;57.568;25.814;2023-01-09T07:49:44;100637.50;;;-6.31;100.00
59650;BME280;46162;57.568;25.814;2023-01-09T07:52:12;100641.16;;;-6.35;100.00
59650;BME280;46162;57.568;25.814;2023-01-09T07:54:41;100642.63;;;-6.27;100.00
59650;BME280;46162;57.568;25.814;2023-01-09T07:57:10;100632.97;;;-6.26;100.00
59650;BME280;46162;57.568;25.814;2023-01-09T07:59:39;100644.56;;;-6.33;100.00
59650;BME280;46162;57.568;25.814;2023-01-09T08:02:09;100638.94;;;-6.21;100.00
59650;BME280;46162;57.568;25.814;2023-01-09T08:04:38;100640.72;;;-6.21;100.00
59650;BME280;46162;57.568;25.814;2023-01-09T08:07:07;100645.28;;;-6.28;100.00
59650;BME280;46162;57.568;25.814;2023-01-09T08:09:36;100645.25;;;-6.27;100.00
59650;BME280;46162;57.568;25.814;2023-01-09T08:12:05;100639.84;;;-6.20;100.00
59650;BME280;46162;57.568;25.814;2023-01-09T08:14:34;100643.34;;;-6.21;100.00
59650;BME280;46162;57.568;25.814;2023-01-09T08:17:03;100638.63;;;-6.10;100.00
59650;BME280;46162;57.568;25.814;2023-01-09T08:19:33;100645.97;;;-6.21;100.00
59650;BME280;46162;57.568;25.814;2023-01-09T08:22:02;100641.44;;;-6.16;100.00
59650;BME280;46162;57.568;25.814;2023-01-09T08:24:30;100634.22;;;-6.10;100.00
59650;BME280;46162;57.568;25.814;2023-01-09T08:26:59;100634.22;;;-6.10;100.00
59650;BME280;46162;57.568;25.814;2023-01-09T08:29:29;100631.63;;;-6.11;100.00
59650;BME280;46162;57.568;25.814;2023-01-09T08:31:58;100631.72;;;-6.13;100.00
59650;BME280;46162;57.568;25.814;2023-01-09T08:34:29;100640.25;;;-6.06;100.00
59650;BME280;46162;57.568;25.814;2023-01-09T08:37:00;100639.66;;;-6.16;100.00
59650;BME280;46162;57.568;25.814;2023-01-09T08:39:29;100644.72;;;-6.08;100.00
59650;BME280;46162;57.568;25.814;2023-01-09T08:42:01;100653.56;;;-6.11;100.00
59650;BME280;46162;57.568;25.814;2023-01-09T08:44:48;100644.53;;;-6.03;100.00
59650;BME280;46162;57.568;25.814;2023-01-09T08:47:35;100662.06;;;-6.02;100.00
59650;BME280;46162;57.568;25.814;2023-01-09T08:50:04;100644.41;;;-5.99;100.00
59650;BME280;46162;57.568;25.814;2023-01-09T08:52:34;100646.28;;;-6.02;100.00
59650;BME280;46162;57.568;25.814;2023-01-09T08:55:04;100653.31;;;-6.03;100.00
59650;BME280;46162;57.568;25.814;2023-01-09T08:57:35;100654.19;;;-6.04;100.00
59650;BME280;46162;57.568;25.814;2023-01-09T09:00:05;100649.81;;;-6.03;100.00
59650;BME280;46162;57.568;25.814;2023-01-09T09:02:34;100640.63;;;-5.92;100.00
59650;BME280;46162;57.568;25.814;2023-01-09T09:05:03;100650.38;;;-5.94;100.00
59650;BME280;46162;57.568;25.814;2023-01-09T09:07:33;100650.59;;;-6.00;100.00
59650;BME280;46162;57.568;25.814;2023-01-09T09:10:03;100649.53;;;-5.94;100.00
59650;BME280;46162;57.568;25.814;2023-01-09T09:12:32;100638.81;;;-5.90;100.00
59650;BME280;46162;57.568;25.814;2023-01-09T09:15:01;100639.75;;;-5.91;100.00
59650;BME280;46162;57.568;25.814;2023-01-09T09:17:50;100637.69;;;-5.81;100.00
59650;BME280;46162;57.568;25.814;2023-01-09T09:20:20;100646.50;;;-5.84;100.00
59650;BME280;46162;57.568;25.814;2023-01-09T09:22:51;100643.16;;;-5.89;100.00
59650;BME280;46162;57.568;25.814;2023-01-09T09:25:20;100634.38;;;-5.88;100.00
59650;BME280;46162;57.568;25.814;2023-01-09T09:27:49;100643.09;;;-5.86;100.00
59650;BME280;46162;57.568;25.814;2023-01-09T09:30:19;100638.16;;;-5.95;100.00
59650;BME280;46162;57.568;25.814;2023-01-09T09:32:48;100634.50;;;-5.91;100.00
59650;BME280;46162;57.568;25.814;2023-01-09T09:35:17;100643.13;;;-5.87;100.00
59650;BME280;46162;57.568;25.814;2023-01-09T09:37:56;100637.84;;;-5.86;100.00
59650;BME280;46162;57.568;25.814;2023-01-09T09:40:50;100634.28;;;-5.85;100.00
59650;BME280;46162;57.568;25.814;2023-01-09T09:46:37;100631.00;;;-5.65;100.00
59650;BME280;46162;57.568;25.814;2023-01-09T09:49:13;100630.72;;;-5.84;100.00
59650;BME280;46162;57.568;25.814;2023-01-09T09:51:55;100633.19;;;-5.77;100.00
59650;BME280;46162;57.568;25.814;2023-01-09T09:54:37;100630.44;;;-5.74;100.00
59650;BME280;46162;57.568;25.814;2023-01-09T09:57:11;100634.19;;;-5.81;100.00
59650;BME280;46162;57.568;25.814;2023-01-09T09:59:43;100630.72;;;-5.84;100.00
59650;BME280;46162;57.568;25.814;2023-01-09T10:02:25;100638.63;;;-5.84;100.00
59650;BME280;46162;57.568;25.814;2023-01-09T10:04:59;100629.69;;;-5.78;100.00
59650;BME280;46162;57.568;25.814;2023-01-09T10:07:32;100629.59;;;-5.75;100.00
59650;BME280;46162;57.568;25.814;2023-01-09T10:10:11;100622.91;;;-5.85;100.00
59650;BME280;46162;57.568;25.814;2023-01-09T10:12:46;100631.75;;;-5.88;100.00
59650;BME280;46162;57.568;25.814;2023-01-09T10:15:27;100628.84;;;-5.78;100.00
59650;BME280;46162;57.568;25.814;2023-01-09T10:18:08;100618.31;;;-5.78;100.00
59650;BME280;46162;57.568;25.814;2023-01-09T10:20:48;100619.22;;;-5.79;100.00
59650;BME280;46162;57.568;25.814;2023-01-09T10:26:27;100613.81;;;-5.75;100.00
59650;BME280;46162;57.568;25.814;2023-01-09T10:29:11;100593.50;;;-5.71;100.00
59650;BME280;46162;57.568;25.814;2023-01-09T10:31:51;100597.19;;;-5.75;100.00
59650;BME280;46162;57.568;25.814;2023-01-09T10:34:32;100583.78;;;-5.68;100.00
59650;BME280;46162;57.568;25.814;2023-01-09T10:37:09;100576.44;;;-5.58;100.00
59650;BME280;46162;57.568;25.814;2023-01-09T10:39:44;100570.50;;;-5.65;100.00
59650;BME280;46162;57.568;25.814;2023-01-09T10:42:21;100580.88;;;-5.60;100.00
59650;BME280;46162;57.568;25.814;2023-01-09T10:45:02;100584.63;;;-5.67;100.00
59650;BME280;46162;57.568;25.814;2023-01-09T10:47:34;100569.69;;;-5.67;100.00
59650;BME280;46162;57.568;25.814;2023-01-09T10:50:19;100574.91;;;-5.65;100.00
59650;BME280;46162;57.568;25.814;2023-01-09T10:52:51;100577.31;;;-5.59;100.00
59650;BME280;46162;57.568;25.814;2023-01-09T10:55:35;100572.75;;;-5.54;100.00
59650;BME280;46162;57.568;25.814;2023-01-09T10:58:12;100566.50;;;-5.50;100.00
59650;BME280;46162;57.568;25.814;2023-01-09T11:00:43;100566.66;;;-5.54;100.00
59650;BME280;46162;57.568;25.814;2023-01-09T11:03:13;100565.75;;;-5.53;100.00
59650;BME280;46162;57.568;25.814;2023-01-09T11:05:43;100557.78;;;-5.52;100.00
59650;BME280;46162;57.568;25.814;2023-01-09T11:08:21;100565.06;;;-5.58;100.00
59650;BME280;46162;57.568;25.814;2023-01-09T11:10:53;100555.38;;;-5.58;100.00
59650;BME280;46162;57.568;25.814;2023-01-09T11:13:26;100556.28;;;-5.59;100.00
59650;BME280;46162;57.568;25.814;2023-01-09T11:16:05;100554.25;;;-5.51;100.00
59650;BME280;46162;57.568;25.814;2023-01-09T11:18:37;100550.00;;;-5.55;100.00
59650;BME280;46162;57.568;25.814;2023-01-09T11:21:33;100542.66;;;-5.45;100.00
59650;BME280;46162;57.568;25.814;2023-01-09T11:24:48;100534.19;;;-5.53;100.00
59650;BME280;46162;57.568;25.814;2023-01-09T11:27:27;100527.69;;;-5.68;100.00
59650;BME280;46162;57.568;25.814;2023-01-09T11:30:22;100509.69;;;-5.55;100.00
59650;BME280;46162;57.568;25.814;2023-01-09T11:32:55;100510.28;;;-5.47;100.00
59650;BME280;46162;57.568;25.814;2023-01-09T11:35:27;100518.97;;;-5.45;100.00
59650;BME280;46162;57.568;25.814;2023-01-09T11:38:06;100517.53;;;-5.54;100.00
59650;BME280;46162;57.568;25.814;2023-01-09T11:40:44;100519.13;;;-5.50;100.00
59650;BME280;46162;57.568;25.814;2023-01-09T11:43:17;100526.34;;;-5.55;100.00
59650;BME280;46162;57.568;25.814;2023-01-09T11:45:52;100536.28;;;-5.63;100.00
59650;BME280;46162;57.568;25.814;2023-01-09T11:48:31;100533.50;;;-5.58;100.00
59650;BME280;46162;57.568;25.814;2023-01-09T11:51:03;100538.69;;;-5.57;100.00
59650;BME280;46162;57.568;25.814;2023-01-09T11:53:47;100534.28;;;-5.56;100.00
59650;BME280;46162;57.568;25.814;2023-01-09T11:56:19;100539.72;;;-5.61;100.00
59650;BME280;46162;57.568;25.814;2023-01-09T11:58:48;100530.09;;;-5.62;100.00
59650;BME280;46162;57.568;25.814;2023-01-09T12:01:42;100543.75;;;-5.51;100.00
59650;BME280;46162;57.568;25.814;2023-01-09T12:04:24;100541.38;;;-5.58;100.00
59650;BME280;46162;57.568;25.814;2023-01-09T12:07:37;100539.75;;;-5.63;100.00
59650;BME280;46162;57.568;25.814;2023-01-09T12:10:32;100536.38;;;-5.66;100.00
59650;BME280;46162;57.568;25.814;2023-01-09T12:13:12;100540.84;;;-5.68;100.00
59650;BME280;46162;57.568;25.814;2023-01-09T12:15:47;100540.06;;;-5.72;100.00
59650;BME280;46162;57.568;25.814;2023-01-09T12:18:35;100539.25;;;-5.74;100.00
59650;BME280;46162;57.568;25.814;2023-01-09T12:21:24;100539.94;;;-5.69;100.00
59650;BME280;46162;57.568;25.814;2023-01-09T12:24:16;100540.75;;;-5.67;100.00
59650;BME280;46162;57.568;25.814;2023-01-09T12:26:56;100546.13;;;-5.70;100.00
59650;BME280;46162;57.568;25.814;2023-01-09T12:29:51;100551.34;;;-5.68;100.00
59650;BME280;46162;57.568;25.814;2023-01-09T12:32:31;100561.91;;;-5.70;100.00
59650;BME280;46162;57.568;25.814;2023-01-09T12:35:16;100547.94;;;-5.72;100.00
59650;BME280;46162;57.568;25.814;2023-01-09T12:38:11;100549.00;;;-5.76;100.00
59650;BME280;46162;57.568;25.814;2023-01-09T12:41:07;100541.03;;;-5.74;100.00
59650;BME280;46162;57.568;25.814;2023-01-09T12:43:51;100536.63;;;-5.74;100.00
59650;BME280;46162;57.568;25.814;2023-01-09T12:46:24;100536.69;;;-5.75;100.00
59650;BME280;46162;57.568;25.814;2023-01-09T12:49:14;100539.50;;;-5.81;100.00
59650;BME280;46162;57.568;25.814;2023-01-09T12:51:51;100545.22;;;-5.69;100.00
59650;BME280;46162;57.568;25.814;2023-01-09T12:54:26;100549.34;;;-5.62;100.00
59650;BME280;46162;57.568;25.814;2023-01-09T12:57:03;100553.22;;;-5.72;100.00
59650;BME280;46162;57.568;25.814;2023-01-09T12:59:39;100553.47;;;-5.79;100.00
59650;BME280;46162;57.568;25.814;2023-01-09T13:02:20;100567.44;;;-5.77;100.00
59650;BME280;46162;57.568;25.814;2023-01-09T13:04:52;100560.56;;;-5.81;100.00
59650;BME280;46162;57.568;25.814;2023-01-09T13:07:27;100561.06;;;-5.70;100.00
59650;BME280;46162;57.568;25.814;2023-01-09T13:09:59;100559.50;;;-5.76;100.00
59650;BME280;46162;57.568;25.814;2023-01-09T13:12:34;100560.91;;;-5.66;100.00